createdAt,value
2022-09-12T00:01:15.573Z,21.39
2022-09-12T00:03:43.373Z,21.38
2022-09-12T00:06:21.849Z,21.39
2022-09-12T00:08:51.383Z,21.38
2022-09-12T00:11:18.959Z,21.36
2022-09-12T00:13:46.333Z,21.34
2022-09-12T00:16:21.946Z,21.29
2022-09-12T00:18:50.347Z,21.28
2022-09-12T00:21:19.030Z,21.26
2022-09-12T00:23:47.283Z,21.23
2022-09-12T00:26:15.241Z,21.21
2022-09-12T00:28:43.031Z,21.16
2022-09-12T00:31:14.209Z,21.11
2022-09-12T00:33:43.515Z,21.06
2022-09-12T00:36:15.338Z,21.01
2022-09-12T00:38:43.787Z,20.99
2022-09-12T00:41:17.825Z,20.94
2022-09-12T00:43:48.738Z,20.91
2022-09-12T00:46:41.941Z,20.83
2022-09-12T00:49:19.080Z,20.83
2022-09-12T00:51:52.871Z,20.83
2022-09-12T00:54:28.021Z,20.84
2022-09-12T00:57:02.710Z,20.86
2022-09-12T00:59:38.220Z,20.85
2022-09-12T01:02:07.327Z,20.85
2022-09-12T01:04:38.650Z,20.85
2022-09-12T01:07:08.596Z,20.84
2022-09-12T01:09:38.231Z,20.81
2022-09-12T01:12:06.388Z,20.82
2022-09-12T01:14:35.126Z,20.82
2022-09-12T01:17:02.621Z,20.80
2022-09-12T01:20:13.285Z,20.68
2022-09-12T01:23:22.921Z,20.61
2022-09-12T01:26:22.476Z,20.62
2022-09-12T01:29:17.730Z,20.61
2022-09-12T01:32:00.451Z,20.58
2022-09-12T01:34:41.799Z,20.50
2022-09-12T01:37:24.974Z,20.44
2022-09-12T01:40:03.731Z,20.38
2022-09-12T01:42:42.153Z,20.34
2022-09-12T01:45:19.867Z,20.34
2022-09-12T01:47:56.330Z,20.37
2022-09-12T01:50:31.822Z,20.42
2022-09-12T01:53:06.773Z,20.45
2022-09-12T01:55:41.477Z,20.47
2022-09-12T01:58:14.653Z,20.48
2022-09-12T02:00:50.653Z,20.47
2022-09-12T02:03:26.766Z,20.43
2022-09-12T02:05:59.762Z,20.40
2022-09-12T02:08:33.292Z,20.39
2022-09-12T02:11:07.731Z,20.39
2022-09-12T02:13:41.360Z,20.43
2022-09-12T02:16:17.030Z,20.48
2022-09-12T02:18:52.647Z,20.50
2022-09-12T02:21:22.668Z,20.53
2022-09-12T02:23:57.518Z,20.53
2022-09-12T02:26:33.122Z,20.52
2022-09-12T02:29:00.784Z,20.50
2022-09-12T02:31:37.234Z,20.43
2022-09-12T02:34:22.024Z,20.36
2022-09-12T02:37:02.476Z,20.33
2022-09-12T02:39:29.899Z,20.33
2022-09-12T02:42:01.594Z,20.31
2022-09-12T02:44:31.822Z,20.28
2022-09-12T02:47:08.657Z,20.25
2022-09-12T02:49:37.548Z,20.27
2022-09-12T02:52:05.175Z,20.27
2022-09-12T02:54:33.051Z,20.27
2022-09-12T02:57:00.327Z,20.29
2022-09-12T02:59:28.570Z,20.31
2022-09-12T03:02:26.017Z,20.27
2022-09-12T03:05:21.642Z,20.19
2022-09-12T03:08:21.947Z,20.18
2022-09-12T03:11:28.903Z,20.11
2022-09-12T03:14:12.520Z,20.09
2022-09-12T03:16:46.974Z,20.07
2022-09-12T03:19:26.295Z,20.01
2022-09-12T03:22:09.456Z,19.99
2022-09-12T03:24:46.714Z,19.97
2022-09-12T03:27:20.665Z,19.96
2022-09-12T03:29:49.643Z,19.95
2022-09-12T03:32:16.880Z,19.93
2022-09-12T03:34:44.119Z,19.91
2022-09-12T03:37:12.756Z,19.89
2022-09-12T03:39:40.240Z,19.86
2022-09-12T03:42:07.578Z,19.86
2022-09-12T03:44:34.830Z,19.87
2022-09-12T03:47:02.065Z,19.84
2022-09-12T03:49:29.340Z,19.84
2022-09-12T03:51:56.575Z,19.85
2022-09-12T03:54:25.376Z,19.87
2022-09-12T03:56:52.617Z,19.89
2022-09-12T03:59:20.554Z,19.91
2022-09-12T04:01:47.805Z,19.93
2022-09-12T04:04:15.131Z,19.94
2022-09-12T04:06:43.059Z,19.95
2022-09-12T04:09:10.414Z,19.97
2022-09-12T04:11:39.014Z,19.99
2022-09-12T04:14:06.362Z,19.97
2022-09-12T04:16:33.624Z,19.93
2022-09-12T04:19:00.932Z,19.87
2022-09-12T04:21:28.350Z,19.84
2022-09-12T04:23:55.593Z,19.79
2022-09-12T04:26:22.925Z,19.76
2022-09-12T04:28:54.768Z,19.72
2022-09-12T04:31:23.462Z,19.68
2022-09-12T04:33:55.042Z,19.66
2022-09-12T04:36:23.120Z,19.64
2022-09-12T04:38:51.455Z,19.63
2022-09-12T04:41:21.586Z,19.62
2022-09-12T04:43:55.600Z,19.62
2022-09-12T04:46:22.956Z,19.65
2022-09-12T04:48:54.613Z,19.66
2022-09-12T04:51:27.904Z,19.63
2022-09-12T04:53:58.976Z,19.53
2022-09-12T04:56:27.864Z,19.45
2022-09-12T04:58:58.186Z,19.35
2022-09-12T05:01:27.577Z,19.30
2022-09-12T05:03:56.771Z,19.30
2022-09-12T05:06:27.395Z,19.32
2022-09-12T05:08:56.578Z,19.36
2022-09-12T05:11:41.260Z,19.36
2022-09-12T05:14:16.321Z,19.32
2022-09-12T05:16:46.144Z,19.32
2022-09-12T05:19:17.203Z,19.36
2022-09-12T05:21:44.571Z,19.36
2022-09-12T05:24:12.031Z,19.28
2022-09-12T05:26:39.513Z,19.22
2022-09-12T05:29:07.112Z,19.16
2022-09-12T05:31:35.924Z,19.15
2022-09-12T05:34:10.022Z,19.17
2022-09-12T05:36:38.546Z,19.19
2022-09-12T05:39:06.055Z,19.18
2022-09-12T05:41:34.609Z,19.21
2022-09-12T05:44:04.767Z,19.27
2022-09-12T05:46:39.130Z,19.33
2022-09-12T05:49:09.809Z,19.40
2022-09-12T05:51:40.262Z,19.46
2022-09-12T05:54:11.804Z,19.48
2022-09-12T05:56:41.521Z,19.48
2022-09-12T05:59:13.519Z,19.45
2022-09-12T06:01:42.904Z,19.49
2022-09-12T06:04:10.584Z,19.59
2022-09-12T06:06:41.734Z,19.74
2022-09-12T06:09:10.154Z,19.83
2022-09-12T06:11:41.041Z,19.93
2022-09-12T06:14:10.247Z,19.98
2022-09-12T06:16:38.472Z,19.99
2022-09-12T06:19:14.066Z,20.07
2022-09-12T06:21:41.450Z,20.19
2022-09-12T06:24:11.991Z,20.27
2022-09-12T06:26:39.527Z,20.29
2022-09-12T06:29:07.598Z,20.30
2022-09-12T06:31:38.051Z,20.24
2022-09-12T06:34:09.272Z,20.22
2022-09-12T06:36:40.167Z,20.24
2022-09-12T06:39:12.273Z,20.24
2022-09-12T06:41:43.770Z,20.27
2022-09-12T06:44:15.976Z,20.31
2022-09-12T06:46:50.276Z,20.31
2022-09-12T06:49:19.148Z,20.31
2022-09-12T06:51:46.724Z,20.35
2022-09-12T06:54:17.149Z,20.41
2022-09-12T06:56:44.976Z,20.57
2022-09-12T06:59:13.163Z,20.69
2022-09-12T07:01:42.268Z,20.79
2022-09-12T07:04:10.634Z,20.89
2022-09-12T07:06:42.170Z,21.15
2022-09-12T07:09:13.943Z,21.54
2022-09-12T07:11:43.022Z,22.05
2022-09-12T07:14:13.849Z,22.59
2022-09-12T07:16:41.552Z,23.20
2022-09-12T07:19:12.172Z,23.76
2022-09-12T07:21:41.503Z,24.24
2022-09-12T07:24:10.754Z,24.80
2022-09-12T07:26:40.475Z,25.39
2022-09-12T07:29:35.260Z,25.86
2022-09-12T07:32:02.460Z,26.42
2022-09-12T07:34:29.739Z,26.89
2022-09-12T07:36:58.693Z,27.27
2022-09-12T07:39:30.184Z,27.75
2022-09-12T07:41:58.649Z,28.38
2022-09-12T07:44:26.964Z,28.83
2022-09-12T07:46:54.338Z,29.21
2022-09-12T07:49:21.558Z,29.62
2022-09-12T07:51:48.799Z,30.06
2022-09-12T07:54:18.369Z,30.54
2022-09-12T07:56:49.800Z,30.70
2022-09-12T07:59:30.224Z,30.66
2022-09-12T08:02:06.651Z,30.57
2022-09-12T08:04:34.367Z,30.67
2022-09-12T08:07:02.930Z,30.72
2022-09-12T08:09:32.082Z,30.44
2022-09-12T08:12:01.691Z,30.04
2022-09-12T08:14:29.691Z,29.59
2022-09-12T08:16:56.981Z,29.15
2022-09-12T08:19:24.271Z,28.68
2022-09-12T08:21:51.495Z,28.15
2022-09-12T08:24:18.702Z,27.58
2022-09-12T08:26:47.311Z,27.19
2022-09-12T08:29:15.033Z,26.85
2022-09-12T08:31:42.574Z,26.55
2022-09-12T08:34:10.692Z,26.36
2022-09-12T08:36:38.020Z,26.19
2022-09-12T08:39:07.566Z,26.12
2022-09-12T08:41:40.687Z,26.10
2022-09-12T08:44:46.371Z,26.06
2022-09-12T08:47:25.330Z,25.96
2022-09-12T08:50:06.316Z,25.92
2022-09-12T08:52:42.105Z,25.97
2022-09-12T08:55:31.692Z,26.10
2022-09-12T08:58:00.719Z,26.33
2022-09-12T09:00:41.903Z,26.42
2022-09-12T09:04:02.475Z,26.49
2022-09-12T09:06:59.203Z,26.62
2022-09-12T09:09:42.948Z,26.72
2022-09-12T09:12:21.324Z,26.81
2022-09-12T09:15:12.677Z,26.94
2022-09-12T09:17:46.470Z,27.18
2022-09-12T09:20:28.792Z,27.43
2022-09-12T09:23:03.701Z,27.69
2022-09-12T09:25:50.146Z,27.91
2022-09-12T09:28:23.666Z,28.16
2022-09-12T09:30:52.475Z,28.33
2022-09-12T09:33:25.307Z,28.49
2022-09-12T09:36:05.472Z,28.55
2022-09-12T09:38:47.803Z,28.60
2022-09-12T09:41:36.622Z,28.60
2022-09-12T09:44:04.542Z,28.52
2022-09-12T09:46:33.633Z,28.26
2022-09-12T09:49:04.005Z,28.13
2022-09-12T09:51:37.576Z,28.10
2022-09-12T09:54:18.155Z,28.07
2022-09-12T09:56:45.944Z,27.98
2022-09-12T09:59:17.736Z,27.94
2022-09-12T10:01:49.885Z,27.76
2022-09-12T10:04:24.381Z,27.51
2022-09-12T10:06:54.335Z,27.39
2022-09-12T10:09:27.103Z,27.25
2022-09-12T10:11:56.974Z,27.20
2022-09-12T10:14:38.465Z,27.10
2022-09-12T10:17:33.958Z,27.03
2022-09-12T10:20:20.610Z,27.03
2022-09-12T10:22:49.783Z,26.97
2022-09-12T10:25:21.399Z,26.75
2022-09-12T10:27:57.511Z,26.56
2022-09-12T10:30:28.582Z,26.61
2022-09-12T10:33:07.643Z,26.71
2022-09-12T10:35:49.698Z,26.76
2022-09-12T10:38:24.094Z,26.98
2022-09-12T10:40:59.553Z,27.05
2022-09-12T10:43:30.992Z,27.11
2022-09-12T10:46:20.153Z,27.16
2022-09-12T10:48:49.542Z,27.14
2022-09-12T10:51:28.516Z,27.12
2022-09-12T10:54:00.103Z,27.12
2022-09-12T10:56:32.748Z,27.14
2022-09-12T10:59:24.321Z,27.18
2022-09-12T11:02:00.360Z,27.41
2022-09-12T11:04:43.798Z,27.65
2022-09-12T11:07:43.861Z,27.81
2022-09-12T11:10:32.015Z,27.92
2022-09-12T11:13:21.545Z,27.86
2022-09-12T11:16:12.698Z,28.00
2022-09-12T11:19:06.872Z,28.38
2022-09-12T11:21:52.243Z,28.56
2022-09-12T11:25:13.942Z,28.71
2022-09-12T11:28:17.838Z,28.78
2022-09-12T11:31:17.066Z,29.00
2022-09-12T11:33:48.858Z,29.09
2022-09-12T11:36:35.483Z,29.05
2022-09-12T11:39:13.344Z,29.00
2022-09-12T11:41:47.979Z,29.04
2022-09-12T11:44:26.171Z,29.02
2022-09-12T11:46:53.428Z,28.95
2022-09-12T11:49:35.247Z,28.81
2022-09-12T11:52:11.198Z,28.70
2022-09-12T11:54:44.773Z,28.61
2022-09-12T11:57:20.758Z,28.68
2022-09-12T11:59:54.211Z,28.80
2022-09-12T12:02:30.667Z,28.75
2022-09-12T12:05:17.728Z,28.78
2022-09-12T12:07:53.771Z,28.78
2022-09-12T12:10:35.020Z,28.82
2022-09-12T12:13:14.077Z,28.84
2022-09-12T12:15:48.672Z,28.78
2022-09-12T12:18:21.963Z,28.68
2022-09-12T12:20:50.840Z,28.67
2022-09-12T12:23:29.522Z,28.76
2022-09-12T12:26:00.879Z,28.82
2022-09-12T12:29:01.183Z,28.93
2022-09-12T12:31:28.625Z,29.14
2022-09-12T12:34:21.699Z,29.31
2022-09-12T12:36:50.348Z,29.46
2022-09-12T12:40:02.978Z,29.19
2022-09-12T12:43:25.864Z,29.05
2022-09-12T12:46:12.634Z,29.05
2022-09-12T12:49:10.498Z,28.99
2022-09-12T12:51:56.675Z,28.94
2022-09-12T12:54:57.481Z,28.90
2022-09-12T12:57:40.776Z,28.97
2022-09-12T13:00:28.391Z,29.02
2022-09-12T13:03:10.640Z,29.09
2022-09-12T13:05:45.807Z,29.13
2022-09-12T13:08:31.629Z,29.03
2022-09-12T13:11:06.609Z,29.09
2022-09-12T13:13:41.122Z,29.08
2022-09-12T13:16:10.459Z,29.02
2022-09-12T13:18:46.109Z,28.93
2022-09-12T13:21:16.306Z,28.94
2022-09-12T13:23:45.223Z,28.91
2022-09-12T13:26:21.010Z,28.91
2022-09-12T13:28:49.124Z,28.94
2022-09-12T13:31:24.206Z,28.84
2022-09-12T13:33:57.947Z,28.77
2022-09-12T13:37:23.511Z,28.68
2022-09-12T13:40:04.031Z,28.79
2022-09-12T13:42:42.582Z,28.88
2022-09-12T13:45:19.798Z,29.28
2022-09-12T13:47:50.269Z,29.93
2022-09-12T13:50:24.608Z,30.29
2022-09-12T13:52:57.464Z,30.33
2022-09-12T13:55:32.384Z,30.08
2022-09-12T13:58:03.181Z,29.82
2022-09-12T14:00:33.231Z,29.72
2022-09-12T14:03:19.724Z,29.55
2022-09-12T14:05:57.395Z,29.30
2022-09-12T14:08:25.187Z,29.16
2022-09-12T14:10:52.446Z,29.08
2022-09-12T14:13:23.178Z,29.03
2022-09-12T14:15:54.857Z,28.96
2022-09-12T14:18:26.192Z,28.97
2022-09-12T14:21:00.880Z,28.80
2022-09-12T14:23:32.975Z,28.77
2022-09-12T14:26:05.834Z,28.77
2022-09-12T14:28:34.363Z,28.83
2022-09-12T14:31:06.629Z,28.84
2022-09-12T14:33:47.887Z,28.91
2022-09-12T14:36:27.303Z,28.90
2022-09-12T14:38:59.386Z,28.82
2022-09-12T14:41:31.370Z,28.75
2022-09-12T14:44:02.798Z,28.73
2022-09-12T14:46:34.893Z,28.64
2022-09-12T14:49:13.564Z,28.62
2022-09-12T14:51:55.374Z,28.58
2022-09-12T14:54:40.284Z,28.58
2022-09-12T14:57:32.950Z,28.53
2022-09-12T15:00:26.280Z,28.45
2022-09-12T15:02:54.828Z,28.49
2022-09-12T15:05:27.910Z,28.47
2022-09-12T15:08:00.439Z,28.46
2022-09-12T15:10:31.385Z,28.49
2022-09-12T15:13:20.679Z,28.53
2022-09-12T15:15:51.809Z,28.62
2022-09-12T15:18:22.186Z,28.67
2022-09-12T15:20:52.977Z,28.69
2022-09-12T15:23:41.081Z,28.54
2022-09-12T15:26:11.633Z,28.55
2022-09-12T15:28:38.941Z,28.58
2022-09-12T15:31:13.888Z,28.57
2022-09-12T15:33:41.391Z,28.61
2022-09-12T15:36:16.724Z,28.69
2022-09-12T15:38:47.355Z,28.87
2022-09-12T15:41:18.006Z,28.86
2022-09-12T15:43:46.129Z,28.83
2022-09-12T15:46:16.913Z,28.76
2022-09-12T15:48:44.332Z,28.69
2022-09-12T15:51:15.547Z,28.55
2022-09-12T15:53:45.930Z,28.47
2022-09-12T15:56:15.090Z,28.40
2022-09-12T15:58:57.191Z,28.34
2022-09-12T16:01:25.730Z,28.31
2022-09-12T16:03:53.148Z,28.33
2022-09-12T16:06:20.490Z,28.34
2022-09-12T16:08:49.517Z,28.33
2022-09-12T16:11:21.772Z,28.30
2022-09-12T16:13:49.320Z,28.28
2022-09-12T16:16:16.761Z,28.22
2022-09-12T16:18:44.092Z,28.21
2022-09-12T16:21:15.217Z,28.17
2022-09-12T16:23:43.359Z,28.10
2022-09-12T16:26:12.031Z,28.03
2022-09-12T16:28:39.991Z,28.00
2022-09-12T16:31:10.502Z,28.01
2022-09-12T16:33:39.090Z,28.02
2022-09-12T16:36:08.616Z,27.95
2022-09-12T16:38:41.789Z,27.90
2022-09-12T16:41:09.318Z,27.91
2022-09-12T16:43:38.655Z,27.94
2022-09-12T16:46:09.936Z,27.98
2022-09-12T16:48:41.594Z,27.97
2022-09-12T16:51:09.764Z,27.96
2022-09-12T16:53:39.050Z,27.92
2022-09-12T16:56:06.941Z,27.89
2022-09-12T16:58:41.732Z,27.91
2022-09-12T17:01:12.573Z,27.92
2022-09-12T17:03:40.363Z,27.88
2022-09-12T17:06:11.258Z,27.83
2022-09-12T17:08:41.300Z,27.81
2022-09-12T17:11:11.607Z,27.80
2022-09-12T17:14:03.301Z,27.80
2022-09-12T17:16:29.154Z,27.72
2022-09-12T17:18:56.839Z,27.68
2022-09-12T17:21:24.587Z,27.62
2022-09-12T17:23:51.831Z,27.55
2022-09-12T17:26:19.533Z,27.49
2022-09-12T17:28:48.583Z,27.44
2022-09-12T17:31:15.948Z,27.37
2022-09-12T17:33:44.358Z,27.36
2022-09-12T17:36:15.346Z,27.30
2022-09-12T17:38:45.496Z,27.26
2022-09-12T17:41:17.623Z,27.20
2022-09-12T17:43:50.227Z,27.16
2022-09-12T17:46:20.448Z,27.10
2022-09-12T17:48:53.114Z,27.06
2022-09-12T17:51:24.530Z,27.02
2022-09-12T17:53:59.153Z,26.98
2022-09-12T17:56:28.096Z,26.92
2022-09-12T17:58:58.645Z,26.88
2022-09-12T18:01:48.322Z,26.83
2022-09-12T18:04:16.971Z,26.77
2022-09-12T18:06:50.541Z,26.76
2022-09-12T18:09:21.091Z,26.75
2022-09-12T18:11:50.131Z,26.73
2022-09-12T18:14:20.865Z,26.70
2022-09-12T18:16:49.039Z,26.68
2022-09-12T18:19:17.503Z,26.64
2022-09-12T18:21:45.283Z,26.62
2022-09-12T18:24:13.626Z,26.59
2022-09-12T18:26:42.667Z,26.54
2022-09-12T18:29:11.106Z,26.51
2022-09-12T18:31:40.389Z,26.45
2022-09-12T18:34:12.702Z,26.39
2022-09-12T18:36:41.439Z,26.35
2022-09-12T18:39:10.638Z,26.32
2022-09-12T18:41:39.133Z,26.29
2022-09-12T18:44:07.988Z,26.27
2022-09-12T18:46:36.065Z,26.25
2022-09-12T18:49:05.763Z,26.23
2022-09-12T18:51:36.100Z,26.18
2022-09-12T18:54:06.594Z,26.15
2022-09-12T18:56:38.219Z,26.12
2022-09-12T18:59:07.224Z,26.08
2022-09-12T19:01:38.123Z,26.04
2022-09-12T19:04:09.809Z,26.00
2022-09-12T19:06:40.192Z,25.99
2022-09-12T19:09:09.139Z,25.94
2022-09-12T19:11:39.098Z,25.89
2022-09-12T19:14:07.595Z,25.84
2022-09-12T19:16:35.507Z,25.76
2022-09-12T19:19:03.155Z,25.66
2022-09-12T19:21:33.142Z,25.58
2022-09-12T19:24:04.439Z,25.51
2022-09-12T19:26:33.376Z,25.47
2022-09-12T19:29:02.849Z,25.41
2022-09-12T19:31:31.310Z,25.34
2022-09-12T19:34:01.185Z,25.30
2022-09-12T19:36:46.372Z,25.28
2022-09-12T19:39:17.111Z,25.25
2022-09-12T19:41:45.308Z,25.21
2022-09-12T19:44:12.805Z,25.17
2022-09-12T19:46:40.475Z,25.12
2022-09-12T19:49:07.843Z,25.09
2022-09-12T19:51:35.097Z,25.05
2022-09-12T19:54:02.916Z,25.01
2022-09-12T19:56:31.537Z,24.98
2022-09-12T19:58:58.823Z,24.96
2022-09-12T20:01:30.580Z,24.92
2022-09-12T20:03:58.832Z,24.91
2022-09-12T20:06:27.346Z,24.87
2022-09-12T20:08:55.443Z,24.81
2022-09-12T20:11:24.572Z,24.80
2022-09-12T20:13:53.916Z,24.78
2022-09-12T20:16:25.128Z,24.74
2022-09-12T20:18:58.602Z,24.73
2022-09-12T20:21:32.200Z,24.74
2022-09-12T20:24:05.344Z,24.71
2022-09-12T20:26:33.482Z,24.71
2022-09-12T20:29:03.696Z,24.67
2022-09-12T20:31:31.978Z,24.60
2022-09-12T20:33:59.569Z,24.51
2022-09-12T20:36:27.123Z,24.43
2022-09-12T20:38:57.477Z,24.42
2022-09-12T20:41:27.169Z,24.41
2022-09-12T20:43:56.060Z,24.42
2022-09-12T20:46:26.792Z,24.44
2022-09-12T20:48:54.687Z,24.44
2022-09-12T20:51:22.990Z,24.42
2022-09-12T20:53:54.563Z,24.36
2022-09-12T20:56:22.567Z,24.31
2022-09-12T20:58:49.773Z,24.30
2022-09-12T21:01:17.466Z,24.32
2022-09-12T21:03:47.763Z,24.32
2022-09-12T21:06:19.523Z,24.29
2022-09-12T21:08:48.213Z,24.23
2022-09-12T21:11:17.024Z,24.18
2022-09-12T21:13:44.734Z,24.12
2022-09-12T21:16:15.220Z,24.05
2022-09-12T21:18:43.348Z,24.00
2022-09-12T21:21:15.864Z,23.96
2022-09-12T21:23:43.349Z,23.93
2022-09-12T21:26:10.855Z,23.91
2022-09-12T21:28:38.101Z,23.89
2022-09-12T21:31:05.785Z,23.88
2022-09-12T21:33:33.080Z,23.88
2022-09-12T21:36:03.628Z,23.87
2022-09-12T21:38:33.190Z,23.90
2022-09-12T21:41:06.387Z,23.95
2022-09-12T21:43:34.723Z,23.99
2022-09-12T21:46:02.897Z,24.01
2022-09-12T21:48:30.334Z,24.03
2022-09-12T21:50:57.750Z,24.08
2022-09-12T21:53:25.693Z,24.14
2022-09-12T21:55:54.267Z,24.17
2022-09-12T21:58:21.688Z,24.20
2022-09-12T22:00:49.274Z,24.22
2022-09-12T22:03:17.529Z,24.26
2022-09-12T22:05:44.810Z,24.29
2022-09-12T22:08:12.415Z,24.26
2022-09-12T22:10:40.233Z,24.27
2022-09-12T22:13:08.838Z,24.27
2022-09-12T22:15:40.576Z,24.25
2022-09-12T22:18:08.428Z,24.26
2022-09-12T22:20:35.664Z,24.28
2022-09-12T22:23:24.807Z,24.29
2022-09-12T22:25:55.752Z,24.23
2022-09-12T22:28:25.120Z,24.19
2022-09-12T22:30:54.330Z,24.11
2022-09-12T22:33:22.057Z,24.05
2022-09-12T22:35:49.317Z,24.02
2022-09-12T22:38:16.589Z,23.99
2022-09-12T22:40:43.945Z,23.96
2022-09-12T22:43:11.866Z,23.97
2022-09-12T22:45:42.842Z,23.98
2022-09-12T22:48:10.089Z,24.01
2022-09-12T22:50:37.360Z,23.99
2022-09-12T22:53:04.866Z,23.94
2022-09-12T22:55:32.321Z,23.88
2022-09-12T22:57:59.765Z,23.81
2022-09-12T23:00:27.999Z,23.76
2022-09-12T23:02:56.804Z,23.75
2022-09-12T23:05:24.104Z,23.72
2022-09-12T23:07:51.849Z,23.69
2022-09-12T23:10:19.162Z,23.67
2022-09-12T23:12:46.403Z,23.64
2022-09-12T23:15:13.666Z,23.65
2022-09-12T23:17:40.883Z,23.66
2022-09-12T23:20:10.446Z,23.66
2022-09-12T23:22:37.714Z,23.66
2022-09-12T23:25:06.131Z,23.65
2022-09-12T23:27:33.326Z,23.65
2022-09-12T23:30:00.574Z,23.64
2022-09-12T23:32:28.333Z,23.62
2022-09-12T23:34:55.570Z,23.59
2022-09-12T23:37:24.194Z,23.57
2022-09-12T23:39:51.503Z,23.58
2022-09-12T23:42:18.772Z,23.59
2022-09-12T23:44:45.980Z,23.59
2022-09-12T23:47:13.392Z,23.58
2022-09-12T23:49:40.649Z,23.58
2022-09-12T23:52:07.874Z,23.60
2022-09-12T23:54:36.966Z,23.59
2022-09-12T23:57:04.583Z,23.58
2022-09-12T23:59:31.892Z,23.58
